Time;durP1;ratioP1;P1;durP2;ratioP2;P2;SDS_P1;SDS_P2;PMS_P1;PMS_P2;Temp;Humidity;BMP_temperature;BMP_pressure;BME280_temperature;BME280_humidity;BME280_pressure;Samples;Min_cycle;Max_cycle;Signal;HPM_P1;HPM_P2
2022/08/23 00:01:59;;;;;;;12.77;7.25;;;16.70;99.90;;;;;;5057704;28;20071;-86
2022/08/23 00:04:29;;;;;;;20.35;8.00;;;16.60;99.90;;;;;;5068204;28;20029;-86
2022/08/23 00:06:55;;;;;;;;;;;16.70;99.90;;;;;;5063388;28;20037;-87
2022/08/23 00:09:23;;;;;;;13.32;8.35;;;16.80;99.90;;;;;;5062735;28;19939;-87
2022/08/23 00:12:01;;;;;;;14.30;10.07;;;16.60;99.90;;;;;;5065593;28;20026;-88
2022/08/23 00:14:30;;;;;;;16.65;7.60;;;16.70;99.90;;;;;;5049486;28;20041;-87
2022/08/23 00:16:57;;;;;;;13.55;8.73;;;16.80;99.90;;;;;;5066058;28;20037;-87
2022/08/23 00:19:25;;;;;;;11.07;8.35;;;16.70;99.90;;;;;;5064216;28;20029;-87
2022/08/23 00:21:53;;;;;;;13.73;8.52;;;16.60;99.90;;;;;;5071874;28;20048;-86
2022/08/23 00:24:21;;;;;;;13.70;8.20;;;16.60;99.90;;;;;;5055682;28;20044;-87
2022/08/23 00:27:07;;;;;;;10.77;8.20;;;16.50;99.90;;;;;;5072615;28;20065;-86
2022/08/23 00:29:40;;;;;;;11.60;8.10;;;16.50;99.90;;;;;;5069203;28;20049;-87
2022/08/23 00:32:10;;;;;;;11.38;8.43;;;16.60;99.90;;;;;;5054553;28;20041;-86
2022/08/23 00:34:36;;;;;;;13.38;8.68;;;16.40;99.90;;;;;;5070987;28;20017;-85
2022/08/23 00:37:03;;;;;;;13.40;8.48;;;16.40;99.90;;;;;;5065794;28;20042;-86
2022/08/23 00:39:29;;;;;;;12.55;8.50;;;16.50;99.90;;;;;;5073159;28;20037;-85
2022/08/23 00:47:38;;;;;;;14.27;8.13;;;16.40;99.90;;;;;;5057340;28;20112;-86
2022/08/23 00:47:40;;;;;;;12.23;8.70;;;16.50;99.90;;;;;;5071950;28;20059;-84
2022/08/23 00:50:15;;;;;;;10.90;7.90;;;16.40;99.90;;;;;;5069617;28;20033;-86
2022/08/23 00:52:55;;;;;;;15.35;9.13;;;16.20;99.90;;;;;;5068776;28;20051;-86
2022/08/23 00:55:27;;;;;;;12.15;8.00;;;16.40;99.90;;;;;;5069755;28;20109;-86
2022/08/23 00:57:53;;;;;;;16.45;9.48;;;16.40;99.90;;;;;;5063844;28;20041;-85
2022/08/23 01:00:19;;;;;;;15.52;8.35;;;16.30;99.90;;;;;;5068909;28;20056;-85
2022/08/23 01:02:49;;;;;;;11.27;8.85;;;16.30;99.90;;;;;;5041717;28;20052;-87
2022/08/23 01:05:15;;;;;;;11.13;9.40;;;16.30;99.90;;;;;;5070576;28;20036;-85
2022/08/23 01:07:48;;;;;;;15.07;9.18;;;16.30;99.90;;;;;;5071250;28;20040;-86
2022/08/23 01:10:29;;;;;;;13.43;8.52;;;16.30;99.90;;;;;;5064072;28;20037;-87
2022/08/23 01:13:07;;;;;;;14.02;8.70;;;16.10;99.90;;;;;;5051663;28;20051;-84
2022/08/23 01:15:55;;;;;;;21.02;9.93;;;16.10;99.90;;;;;;5064903;28;20033;-86
2022/08/23 01:18:24;;;;;;;13.98;9.25;;;16.10;99.90;;;;;;5070158;28;20096;-86
2022/08/23 01:21:13;;;;;;;11.93;9.00;;;16.20;99.90;;;;;;5052845;28;20048;-85
2022/08/23 01:23:47;;;;;;;10.43;8.23;;;16.20;99.90;;;;;;5070466;28;20336;-85
2022/08/23 01:26:14;;;;;;;17.63;9.75;;;16.30;99.90;;;;;;5063684;28;20096;-87
2022/08/23 01:28:41;;;;;;;15.73;9.25;;;16.30;99.90;;;;;;5068035;28;20044;-85
2022/08/23 01:31:07;;;;;;;10.00;8.35;;;16.40;99.90;;;;;;5033002;28;20056;-84
2022/08/23 01:33:35;;;;;;;13.30;9.60;;;16.40;99.90;;;;;;5055399;28;20035;-85
2022/08/23 01:36:01;;;;;;;15.75;9.32;;;16.30;99.90;;;;;;5033404;28;20205;-86
2022/08/23 01:38:27;;;;;;;12.80;8.85;;;16.50;99.90;;;;;;5053144;28;20045;-87
2022/08/23 01:40:53;;;;;;;15.60;8.57;;;16.40;99.90;;;;;;5057051;28;20043;-86
2022/08/23 01:43:21;;;;;;;12.43;7.90;;;16.30;99.90;;;;;;5053885;28;20488;-88
2022/08/23 01:45:48;;;;;;;8.85;7.93;;;16.20;99.90;;;;;;5057677;28;20057;-88
2022/08/23 01:48:15;;;;;;;11.55;7.95;;;15.90;99.90;;;;;;5086457;23;20149;-89
2022/08/23 01:50:40;;;;;;;12.38;7.75;;;16.00;99.90;;;;;;5056843;28;20096;-87
2022/08/23 01:53:07;;;;;;;11.75;8.50;;;15.90;99.90;;;;;;5067376;28;20048;-88
2022/08/23 01:55:33;;;;;;;14.98;8.60;;;16.00;99.90;;;;;;5062991;28;20041;-87
2022/08/23 01:58:01;;;;;;;11.70;8.68;;;16.10;99.90;;;;;;5039635;28;20049;-87
2022/08/23 02:00:34;;;;;;;17.23;8.82;;;16.00;99.90;;;;;;5063297;28;20028;-88
2022/08/23 02:03:01;;;;;;;12.20;9.20;;;16.00;99.90;;;;;;5051286;28;20033;-89
2022/08/23 02:05:27;;;;;;;16.65;9.80;;;16.10;99.90;;;;;;5068986;28;20040;-88
2022/08/23 02:07:54;;;;;;;9.68;7.70;;;16.00;99.90;;;;;;5067928;28;20021;-87
2022/08/23 02:10:20;;;;;;;11.32;9.18;;;16.10;99.90;;;;;;5062487;28;20041;-88
2022/08/23 02:12:46;;;;;;;12.80;9.63;;;16.10;99.90;;;;;;5057483;28;20045;-87
2022/08/23 02:15:13;;;;;;;16.77;11.25;;;16.10;99.90;;;;;;5038323;28;20041;-90
2022/08/23 02:17:39;;;;;;;14.90;9.90;;;16.10;99.90;;;;;;5040569;28;20043;-88
2022/08/23 02:20:06;;;;;;;15.27;8.52;;;16.10;99.90;;;;;;5052811;28;20072;-86
2022/08/23 02:22:32;;;;;;;17.55;11.75;;;16.00;99.90;;;;;;5053782;28;20040;-90
2022/08/23 02:24:57;;;;;;;9.57;8.57;;;16.10;99.90;;;;;;5035694;28;20055;-88
2022/08/23 02:27:23;;;;;;;9.15;7.40;;;16.10;99.90;;;;;;5052140;28;20037;-89
2022/08/23 02:29:49;;;;;;;9.30;7.72;;;16.00;99.90;;;;;;5048606;28;20509;-88
2022/08/23 02:32:16;;;;;;;10.77;7.55;;;15.70;99.90;;;;;;5046940;28;20041;-88
2022/08/23 02:34:43;;;;;;;10.48;7.85;;;15.80;99.90;;;;;;5049265;28;20051;-87
2022/08/23 02:37:11;;;;;;;13.02;8.50;;;15.80;99.90;;;;;;5032552;28;20033;-90
2022/08/23 02:39:38;;;;;;;10.00;7.97;;;15.80;99.90;;;;;;5042510;28;20174;-88
2022/08/23 02:42:04;;;;;;;13.98;9.30;;;15.90;99.90;;;;;;5052132;28;20040;-88
2022/08/23 02:44:33;;;;;;;12.60;9.60;;;15.70;99.90;;;;;;5050422;28;20040;-88
2022/08/23 02:46:59;;;;;;;11.52;8.15;;;15.70;99.90;;;;;;5048637;28;20097;-88
2022/08/23 02:49:25;;;;;;;13.63;8.77;;;15.80;99.90;;;;;;5045982;28;20056;-88
2022/08/23 02:51:51;;;;;;;9.10;8.18;;;15.80;99.90;;;;;;5049890;28;20055;-91
2022/08/23 02:54:17;;;;;;;12.45;10.27;;;15.60;99.90;;;;;;5050068;28;20052;-89
2022/08/23 02:56:42;;;;;;;11.38;8.50;;;15.70;99.90;;;;;;5043971;28;20051;-88
2022/08/23 02:59:08;;;;;;;10.20;8.07;;;15.60;99.90;;;;;;5048753;28;20044;-89
2022/08/23 03:01:37;;;;;;;9.23;8.15;;;15.40;99.90;;;;;;5048762;28;20098;-87
2022/08/23 03:04:05;;;;;;;12.52;9.00;;;15.40;99.90;;;;;;5047830;28;20033;-87
2022/08/23 03:06:31;;;;;;;16.30;9.40;;;15.50;99.90;;;;;;5050318;28;20044;-88
2022/08/23 03:08:56;;;;;;;11.40;8.82;;;15.50;99.90;;;;;;5048525;28;20041;-87
2022/08/23 03:11:23;;;;;;;12.32;9.43;;;15.50;99.90;;;;;;5046209;28;20064;-89
2022/08/23 03:13:50;;;;;;;11.43;8.63;;;15.70;99.90;;;;;;5048932;28;20045;-88
2022/08/23 03:16:17;;;;;;;20.23;11.30;;;15.60;99.90;;;;;;5044539;28;20049;-89
2022/08/23 03:18:42;;;;;;;12.82;10.93;;;15.60;99.90;;;;;;5046098;28;20043;-88
2022/08/23 03:21:09;;;;;;;12.52;9.60;;;15.60;99.90;;;;;;5047223;28;20044;-88
2022/08/23 03:23:35;;;;;;;15.63;11.23;;;15.60;99.90;;;;;;5027851;28;20116;-82
2022/08/23 03:26:03;;;;;;;19.05;10.25;;;15.70;99.90;;;;;;5052410;28;20045;-89
2022/08/23 03:28:31;;;;;;;12.30;10.32;;;15.70;99.90;;;;;;5055988;28;20490;-88
2022/08/23 03:30:57;;;;;;;12.80;10.30;;;15.70;99.90;;;;;;5046790;28;20056;-89
2022/08/23 03:33:23;;;;;;;11.65;7.97;;;15.40;99.90;;;;;;5058105;28;20486;-89
2022/08/23 03:35:48;;;;;;;8.90;8.00;;;15.40;99.90;;;;;;5064230;28;20033;-88
2022/08/23 03:38:15;;;;;;;12.48;8.23;;;15.20;99.90;;;;;;5052434;28;20415;-88
2022/08/23 03:40:42;;;;;;;8.13;7.28;;;15.20;99.90;;;;;;5039113;28;20045;-86
2022/08/23 03:43:07;;;;;;;9.23;7.45;;;15.30;99.90;;;;;;5050153;28;20049;-89
2022/08/23 03:45:33;;;;;;;9.50;8.32;;;15.40;99.90;;;;;;5053462;28;20041;-88
2022/08/23 03:47:59;;;;;;;9.93;7.72;;;15.40;99.90;;;;;;5055434;28;20491;-87
2022/08/23 03:50:25;;;;;;;9.85;8.50;;;15.50;99.90;;;;;;5037012;28;20049;-88
2022/08/23 03:52:50;;;;;;;10.38;8.73;;;15.30;99.90;;;;;;5053564;28;20033;-85
2022/08/23 03:55:16;;;;;;;11.55;8.48;;;15.40;99.90;;;;;;5054677;28;21509;-89
2022/08/23 03:57:42;;;;;;;16.00;10.60;;;15.50;99.90;;;;;;5058264;28;20037;-87
2022/08/23 04:00:10;;;;;;;13.70;10.18;;;15.60;99.90;;;;;;5056309;28;20041;-87
2022/08/23 04:02:36;;;;;;;14.82;9.43;;;15.50;99.90;;;;;;5054787;28;20053;-86
2022/08/23 04:05:03;;;;;;;13.77;8.60;;;15.50;99.90;;;;;;5035376;28;20415;-86
2022/08/23 04:07:29;;;;;;;15.43;8.65;;;15.20;99.90;;;;;;5051942;28;20064;-88
2022/08/23 04:09:55;;;;;;;12.63;9.73;;;15.20;99.90;;;;;;5054032;28;20485;-89
2022/08/23 04:12:22;;;;;;;10.63;9.55;;;15.00;99.90;;;;;;5054375;28;20399;-89
2022/08/23 04:14:48;;;;;;;16.77;10.85;;;15.00;99.90;;;;;;5054141;28;20507;-90
2022/08/23 04:17:14;;;;;;;10.45;9.27;;;15.00;99.90;;;;;;5051858;28;20158;-87
2022/08/23 04:19:40;;;;;;;12.63;8.85;;;14.90;99.90;;;;;;5054461;28;20098;-87
2022/08/23 04:22:15;;;;;;;10.68;7.53;;;14.80;99.90;;;;;;5054451;28;20071;-87
2022/08/23 04:24:41;;;;;;;13.15;8.32;;;14.80;99.90;;;;;;5054716;28;20128;-88
2022/08/23 04:27:07;;;;;;;11.52;9.07;;;14.90;99.90;;;;;;5036529;28;20055;-88
2022/08/23 04:29:33;;;;;;;10.55;9.50;;;14.90;99.90;;;;;;5037600;28;20100;-89
2022/08/23 04:31:59;;;;;;;13.52;8.95;;;15.00;99.90;;;;;;5053138;28;20037;-88
2022/08/23 04:34:26;;;;;;;11.88;8.40;;;15.10;99.90;;;;;;5055472;28;20110;-88
2022/08/23 04:36:52;;;;;;;8.70;7.80;;;15.10;99.90;;;;;;5055541;28;20101;-89
2022/08/23 04:39:18;;;;;;;20.52;9.68;;;15.20;99.90;;;;;;5057406;28;20106;-87
2022/08/23 04:44:28;;;;;;;11.55;9.40;;;15.20;99.90;;;;;;5062646;28;20056;-84
2022/08/23 04:46:54;;;;;;;11.32;10.05;;;15.00;99.90;;;;;;5066288;28;20033;-85
2022/08/23 04:49:22;;;;;;;18.90;11.05;;;15.10;99.90;;;;;;5067732;28;20151;-86
2022/08/23 04:51:48;;;;;;;14.18;10.82;;;15.10;99.90;;;;;;5067256;28;20159;-90
2022/08/23 04:54:14;;;;;;;17.23;10.90;;;15.20;99.90;;;;;;5059394;28;20041;-84
2022/08/23 04:56:40;;;;;;;10.80;9.52;;;15.20;99.90;;;;;;5058940;28;20124;-84
2022/08/23 04:59:06;;;;;;;11.23;9.88;;;15.10;99.90;;;;;;5055406;28;20087;-85
2022/08/23 05:01:33;;;;;;;15.02;9.05;;;15.20;99.90;;;;;;5062228;28;20044;-85
2022/08/23 05:03:59;;;;;;;11.68;10.50;;;15.20;99.90;;;;;;5061169;28;20108;-84
2022/08/23 05:06:26;;;;;;;11.70;10.50;;;15.20;99.90;;;;;;5030227;28;20098;-84
2022/08/23 05:08:52;;;;;;;13.63;10.63;;;15.30;99.90;;;;;;5059019;28;20045;-81
2022/08/23 05:11:17;;;;;;;10.50;8.73;;;15.40;99.90;;;;;;5048530;28;20130;-80
2022/08/23 05:13:43;;;;;;;11.55;9.13;;;15.40;99.90;;;;;;5028661;28;20045;-77
2022/08/23 05:16:09;;;;;;;11.77;8.65;;;15.40;99.90;;;;;;5047365;28;20403;-84
2022/08/23 05:18:35;;;;;;;10.68;7.72;;;15.30;99.90;;;;;;5052003;28;20037;-83
2022/08/23 05:21:00;;;;;;;10.50;8.35;;;15.20;99.90;;;;;;5051451;28;20076;-83
2022/08/23 05:23:26;;;;;;;11.38;7.78;;;15.10;99.90;;;;;;5050164;28;20044;-84
2022/08/23 05:25:53;;;;;;;21.90;9.13;;;15.00;99.90;;;;;;5033212;28;20049;-82
2022/08/23 05:28:24;;;;;;;10.32;7.10;;;15.20;99.90;;;;;;5058640;28;20052;-85
2022/08/23 05:30:57;;;;;;;8.75;6.38;;;15.30;99.90;;;;;;5051120;28;20405;-80
2022/08/23 05:33:24;;;;;;;9.27;6.75;;;15.20;99.90;;;;;;5029071;28;20052;-83
2022/08/23 05:35:50;;;;;;;9.18;7.03;;;15.40;99.90;;;;;;5048514;28;20139;-83
2022/08/23 05:38:15;;;;;;;15.13;10.05;;;15.40;99.90;;;;;;5050116;28;20045;-84
2022/08/23 05:40:41;;;;;;;9.52;8.52;;;15.40;99.90;;;;;;5002542;28;20812;-83
2022/08/23 05:43:07;;;;;;;10.93;9.80;;;15.60;99.90;;;;;;5022225;28;20063;-83
2022/08/23 05:45:32;;;;;;;11.15;10.00;;;15.70;99.90;;;;;;5047149;28;20051;-83
2022/08/23 05:47:58;;;;;;;12.18;11.00;;;15.80;99.90;;;;;;5029202;28;20044;-83
2022/08/23 05:50:24;;;;;;;17.10;11.13;;;15.90;99.90;;;;;;5047456;28;20367;-84
2022/08/23 05:52:49;;;;;;;13.55;11.07;;;16.10;99.90;;;;;;5046085;28;20029;-84
2022/08/23 05:55:15;;;;;;;13.88;10.63;;;16.10;99.90;;;;;;5028491;28;20045;-84
2022/08/23 05:57:41;;;;;;;13.95;11.60;;;16.30;99.90;;;;;;5033536;28;20502;-83
2022/08/23 06:00:14;;;;;;;16.70;11.85;;;16.40;99.90;;;;;;5045092;28;20036;-84
2022/08/23 06:02:41;;;;;;;16.80;12.70;;;16.40;99.90;;;;;;5028513;28;20128;-81
2022/08/23 06:05:08;;;;;;;13.18;11.77;;;16.40;99.90;;;;;;5026947;28;20053;-83
2022/08/23 06:07:34;;;;;;;14.65;13.25;;;16.40;99.90;;;;;;5026413;28;20049;-82
2022/08/23 06:10:00;;;;;;;17.40;13.48;;;16.50;99.90;;;;;;5037710;28;20069;-82
2022/08/23 06:12:26;;;;;;;16.20;13.75;;;16.50;99.90;;;;;;5042825;28;20034;-82
2022/08/23 06:14:52;;;;;;;18.23;13.82;;;16.70;99.90;;;;;;5045257;28;20048;-81
2022/08/23 06:17:17;;;;;;;24.27;15.68;;;16.70;99.90;;;;;;5053753;28;20048;-81
2022/08/23 06:19:43;;;;;;;15.70;13.35;;;16.80;99.90;;;;;;5052292;28;20049;-82
2022/08/23 06:22:09;;;;;;;16.65;13.50;;;16.90;99.90;;;;;;5016114;28;20043;-82
2022/08/23 06:24:35;;;;;;;16.95;14.20;;;17.10;99.90;;;;;;5045767;28;20051;-77
2022/08/23 06:27:00;;;;;;;17.35;13.65;;;17.20;99.90;;;;;;5048505;28;20484;-81
2022/08/23 06:29:26;;;;;;;20.60;13.95;;;17.20;99.90;;;;;;5047724;28;20068;-84
2022/08/23 06:31:52;;;;;;;17.23;14.63;;;17.40;99.90;;;;;;5053288;28;20128;-82
2022/08/23 06:34:31;;;;;;;20.40;14.98;;;17.50;99.90;;;;;;5039759;28;20033;-82
2022/08/23 06:36:59;;;;;;;22.08;16.23;;;17.60;99.90;;;;;;5052581;28;20060;-83
2022/08/23 06:39:27;;;;;;;17.77;12.30;;;17.70;99.90;;;;;;5048309;28;20037;-79
2022/08/23 06:42:04;;;;;;;16.95;13.13;;;17.80;99.90;;;;;;5045526;28;20045;-79
2022/08/23 06:44:31;;;;;;;15.80;13.18;;;17.80;99.90;;;;;;5039976;28;20029;-79
2022/08/23 06:46:57;;;;;;;14.88;11.70;;;17.90;99.90;;;;;;5043132;28;20032;-79
2022/08/23 06:49:23;;;;;;;13.05;11.57;;;18.00;99.90;;;;;;5042336;28;20397;-79
2022/08/23 06:51:51;;;;;;;14.50;12.18;;;18.00;99.90;;;;;;5044009;28;20265;-76
2022/08/23 06:54:20;;;;;;;13.77;11.50;;;18.10;99.90;;;;;;5044438;28;20296;-79
2022/08/23 06:56:47;;;;;;;13.50;12.00;;;18.10;99.90;;;;;;5043269;28;20424;-76
2022/08/23 06:59:13;;;;;;;18.08;13.00;;;18.20;99.90;;;;;;5046358;28;20140;-79
2022/08/23 07:01:46;;;;;;;12.07;9.95;;;18.40;99.90;;;;;;5043413;28;20095;-79
2022/08/23 07:04:13;;;;;;;13.48;11.82;;;18.50;99.90;;;;;;5043670;28;20079;-79
2022/08/23 07:06:39;;;;;;;17.08;11.13;;;19.00;99.90;;;;;;5025241;28;20068;-79
2022/08/23 07:09:06;;;;;;;12.63;11.20;;;20.10;99.90;;;;;;5045238;28;20202;-78
2022/08/23 07:11:32;;;;;;;15.02;9.88;;;21.20;99.90;;;;;;5029419;28;20049;-80
2022/08/23 07:13:59;;;;;;;13.60;9.32;;;22.50;99.90;;;;;;5028122;28;20043;-80
2022/08/23 07:16:31;;;;;;;11.27;10.00;;;22.30;99.90;;;;;;5028512;28;20623;-79
2022/08/23 07:18:58;;;;;;;13.50;9.50;;;22.40;99.90;;;;;;5045787;28;20029;-79
2022/08/23 07:21:23;;;;;;;16.23;9.30;;;21.20;99.90;;;;;;5028191;28;20102;-79
2022/08/23 07:23:49;;;;;;;11.77;9.35;;;20.70;99.90;;;;;;5046379;28;20486;-80
2022/08/23 07:26:16;;;;;;;13.82;8.48;;;20.50;99.90;;;;;;5044413;28;20083;-80
2022/08/23 07:28:42;;;;;;;10.93;8.13;;;20.40;99.90;;;;;;5048973;28;20044;-80
2022/08/23 07:31:14;;;;;;;10.40;9.23;;;20.40;99.90;;;;;;5030016;28;20048;-79
2022/08/23 07:33:40;;;;;;;7.90;7.10;;;20.50;99.90;;;;;;5046121;28;20075;-81
2022/08/23 07:36:07;;;;;;;9.00;7.60;;;20.80;99.90;;;;;;5045629;28;20502;-80
2022/08/23 07:38:34;;;;;;;13.95;8.13;;;20.90;99.90;;;;;;5049526;28;20044;-79
2022/08/23 07:41:02;;;;;;;9.13;7.80;;;21.00;99.90;;;;;;5030229;28;20045;-75
2022/08/23 07:43:28;;;;;;;11.25;7.20;;;21.00;99.90;;;;;;5026992;28;20395;-76
2022/08/23 07:45:54;;;;;;;16.98;9.63;;;21.10;99.90;;;;;;5029615;28;20106;-77
2022/08/23 07:48:20;;;;;;;6.78;6.10;;;21.30;99.90;;;;;;5047111;28;20053;-74
2022/08/23 07:50:58;;;;;;;13.10;7.80;;;21.50;99.90;;;;;;5047429;28;20049;-75
2022/08/23 07:53:25;;;;;;;7.63;6.60;;;21.70;99.90;;;;;;5028828;28;20064;-74
2022/08/23 07:55:51;;;;;;;6.47;5.63;;;21.80;99.90;;;;;;5048502;28;20055;-74
2022/08/23 07:58:17;;;;;;;9.18;5.53;;;21.90;99.90;;;;;;5045613;28;20040;-75
2022/08/23 08:00:43;;;;;;;7.22;5.47;;;21.80;99.90;;;;;;5042439;28;20115;-74
2022/08/23 08:03:11;;;;;;;6.95;6.07;;;22.00;99.90;;;;;;5046848;28;20032;-74
2022/08/23 08:05:37;;;;;;;6.00;5.38;;;22.20;99.90;;;;;;5047941;28;20060;-73
2022/08/23 08:08:04;;;;;;;8.98;6.00;;;22.30;99.90;;;;;;5046516;28;20514;-80
2022/08/23 08:10:30;;;;;;;9.48;6.20;;;22.50;99.90;;;;;;5030205;28;20083;-78
2022/08/23 08:12:56;;;;;;;8.10;4.82;;;22.60;99.90;;;;;;5051709;28;20077;-79
2022/08/23 08:15:22;;;;;;;9.88;4.97;;;22.40;99.90;;;;;;5043262;28;20554;-78
2022/08/23 08:17:52;;;;;;;7.43;5.10;;;22.60;99.90;;;;;;5031377;28;20159;-78
2022/08/23 08:20:18;;;;;;;8.65;6.60;;;22.70;99.90;;;;;;5044332;28;20032;-80
2022/08/23 08:22:46;;;;;;;8.40;5.53;;;22.60;99.90;;;;;;5048191;28;20083;-78
2022/08/23 08:25:13;;;;;;;5.63;4.82;;;22.50;99.90;;;;;;5023744;28;20115;-78
2022/08/23 08:27:39;;;;;;;9.15;4.72;;;22.40;99.90;;;;;;5046862;28;20044;-79
2022/08/23 08:30:05;;;;;;;5.43;4.38;;;22.40;99.90;;;;;;5028607;28;20053;-76
2022/08/23 08:32:31;;;;;;;9.57;5.07;;;22.30;99.90;;;;;;5045035;28;20037;-79
2022/08/23 08:34:57;;;;;;;6.53;5.38;;;22.30;99.90;;;;;;5045446;28;20045;-79
2022/08/23 08:37:23;;;;;;;7.03;4.70;;;22.20;99.90;;;;;;5046495;28;20037;-78
2022/08/23 08:39:49;;;;;;;8.55;4.30;;;22.00;99.90;;;;;;5048034;28;20041;-77
2022/08/23 08:42:30;;;;;;;7.55;4.78;;;22.10;99.90;;;;;;5046131;28;20048;-78
2022/08/23 08:45:09;;;;;;;6.38;4.18;;;22.20;99.90;;;;;;5045717;28;20053;-78
2022/08/23 08:47:48;;;;;;;9.60;4.53;;;22.40;99.90;;;;;;5043663;28;20041;-77
2022/08/23 08:50:43;;;;;;;7.75;4.15;;;22.70;99.90;;;;;;5028887;28;20080;-78
2022/08/23 08:53:13;;;;;;;8.77;4.50;;;22.90;99.90;;;;;;5033016;28;20609;-78
2022/08/23 08:55:44;;;;;;;7.88;4.28;;;23.20;99.90;;;;;;5046651;28;20049;-77
2022/08/23 08:58:23;;;;;;;6.57;3.95;;;23.40;99.90;;;;;;5046213;28;20068;-78
2022/08/23 09:00:49;;;;;;;7.43;4.05;;;23.50;99.90;;;;;;5026480;28;20069;-77
2022/08/23 09:03:19;;;;;;;11.23;4.10;;;23.30;99.90;;;;;;5042656;28;20546;-78
2022/08/23 09:05:58;;;;;;;4.72;3.75;;;23.40;99.90;;;;;;5045183;28;20051;-79
2022/08/23 09:08:46;;;;;;;7.47;3.92;;;23.50;99.90;;;;;;5045931;28;20036;-77
2022/08/23 09:11:15;;;;;;;8.45;3.40;;;23.40;99.90;;;;;;5040952;28;20119;-76
2022/08/23 09:13:54;;;;;;;8.38;3.88;;;23.50;99.90;;;;;;5047143;28;20052;-77
2022/08/23 09:16:53;;;;;;;6.60;3.38;;;23.60;99.90;;;;;;5027339;28;20049;-78
2022/08/23 09:19:22;;;;;;;4.25;2.70;;;23.70;99.90;;;;;;5046749;28;20459;-79
2022/08/23 09:21:59;;;;;;;7.60;4.03;;;23.90;99.90;;;;;;5024847;28;20466;-81
2022/08/23 09:24:25;;;;;;;10.55;3.65;;;23.90;99.90;;;;;;5040899;28;20299;-80
2022/08/23 09:26:55;;;;;;;5.88;3.58;;;23.90;99.90;;;;;;5029003;28;20123;-80
2022/08/23 09:29:20;;;;;;;6.60;3.50;;;23.80;99.90;;;;;;5027173;28;20036;-80
2022/08/23 09:31:57;;;;;;;6.15;3.45;;;24.10;99.90;;;;;;5047167;28;20789;-80
2022/08/23 09:34:29;;;;;;;7.40;4.75;;;24.30;99.90;;;;;;5012399;28;20068;-79
2022/08/23 09:37:15;;;;;;;8.82;3.83;;;24.30;99.90;;;;;;5021555;28;20148;-81
2022/08/23 09:39:43;;;;;;;6.30;3.20;;;24.50;99.90;;;;;;5010701;28;20043;-78
2022/08/23 09:42:31;;;;;;;5.03;2.83;;;24.60;99.90;;;;;;5020067;28;20045;-80
2022/08/23 09:44:58;;;;;;;4.72;2.90;;;24.70;99.90;;;;;;5045531;28;20041;-78
2022/08/23 09:47:39;;;;;;;7.13;2.88;;;24.70;99.90;;;;;;5028446;28;20033;-80
2022/08/23 09:50:41;;;;;;;6.00;4.22;;;24.90;99.90;;;;;;5005403;28;20096;-80
2022/08/23 09:53:12;;;;;;;10.35;4.68;;;25.10;99.90;;;;;;4959974;28;20065;-80
2022/08/23 09:55:41;;;;;;;7.38;2.45;;;25.20;99.90;;;;;;4988939;28;20125;-80
2022/08/23 09:58:19;;;;;;;6.88;3.17;;;25.20;99.90;;;;;;5005149;28;20280;-81
2022/08/23 10:00:59;;;;;;;7.25;3.22;;;25.10;99.90;;;;;;5006437;28;20046;-80
2022/08/23 10:03:28;;;;;;;6.38;2.67;;;25.20;99.90;;;;;;5004183;28;20057;-81
2022/08/23 10:05:57;;;;;;;4.30;2.50;;;25.50;99.90;;;;;;5020730;28;20056;-79
2022/08/23 10:08:32;;;;;;;8.60;3.22;;;25.60;99.90;;;;;;5005362;28;20034;-79
2022/08/23 10:11:10;;;;;;;7.10;3.00;;;25.50;99.90;;;;;;5003881;28;21702;-79
2022/08/23 10:13:38;;;;;;;5.22;3.05;;;25.20;99.90;;;;;;4989399;28;20038;-80
2022/08/23 10:16:26;;;;;;;7.72;3.05;;;24.90;99.90;;;;;;5004932;28;20054;-79
2022/08/23 10:19:07;;;;;;;5.45;3.05;;;25.00;99.90;;;;;;4984280;28;20050;-79
2022/08/23 10:21:51;;;;;;;8.45;2.60;;;25.30;99.90;;;;;;5007869;28;20081;-79
2022/08/23 10:24:23;;;;;;;12.27;3.05;;;25.60;99.90;;;;;;4994136;28;20408;-78
2022/08/23 10:30:10;;;;;;;13.48;3.53;;;25.80;99.90;;;;;;4992564;28;20085;-82
2022/08/23 10:33:02;;;;;;;4.88;3.95;;;25.80;99.90;;;;;;5005682;28;20057;-83
2022/08/23 10:35:52;;;;;;;10.48;4.35;;;25.90;99.90;;;;;;5005365;28;20081;-82
2022/08/23 10:38:32;;;;;;;5.82;2.30;;;26.00;99.90;;;;;;5009635;28;20045;-81
2022/08/23 10:41:21;;;;;;;5.97;2.88;;;26.10;99.90;;;;;;5005511;28;20104;-82
2022/08/23 10:44:14;;;;;;;5.95;2.83;;;26.20;99.90;;;;;;5015024;28;20041;-81
2022/08/23 10:46:47;;;;;;;7.28;2.83;;;26.10;99.90;;;;;;5010845;28;20053;-81
2022/08/23 10:49:15;;;;;;;6.72;2.83;;;26.10;99.90;;;;;;5008729;28;20080;-82
2022/08/23 10:51:48;;;;;;;5.43;2.47;;;26.20;99.90;;;;;;5005113;28;20128;-83
2022/08/23 10:54:34;;;;;;;5.28;3.15;;;26.30;99.90;;;;;;5011004;28;20460;-84
2022/08/23 10:57:04;;;;;;;5.75;2.85;;;26.20;99.90;;;;;;5001722;28;20034;-79
2022/08/23 10:59:32;;;;;;;4.43;3.00;;;26.30;99.90;;;;;;4987928;28;20053;-80
2022/08/23 11:02:23;;;;;;;7.63;3.55;;;26.50;99.90;;;;;;5022602;28;20048;-82
2022/08/23 11:05:21;;;;;;;9.50;3.00;;;26.40;99.90;;;;;;5023942;28;20048;-80
2022/08/23 11:08:03;;;;;;;5.60;2.63;;;26.60;99.90;;;;;;5017451;28;20056;-81
2022/08/23 11:10:36;;;;;;;8.57;1.98;;;26.90;99.90;;;;;;5005066;28;20054;-81
2022/08/23 11:13:11;;;;;;;5.00;2.40;;;26.90;99.90;;;;;;5013991;28;20060;-80
2022/08/23 11:15:58;;;;;;;3.00;1.60;;;27.00;99.90;;;;;;5003882;28;20511;-81
2022/08/23 11:18:32;;;;;;;4.65;1.80;;;26.90;99.90;;;;;;5002368;28;20050;-80
2022/08/23 11:21:32;;;;;;;7.43;2.17;;;27.00;99.90;;;;;;5021547;28;20395;-80
2022/08/23 11:23:57;;;;;;;4.40;2.33;;;27.10;99.90;;;;;;5001309;28;20444;-81
2022/08/23 11:26:26;;;;;;;6.78;2.40;;;27.00;99.90;;;;;;5005498;28;20046;-80
2022/08/23 11:29:23;;;;;;;10.02;1.70;;;27.00;99.90;;;;;;5020133;28;20041;-81
2022/08/23 11:32:20;;;;;;;4.50;2.35;;;27.10;99.90;;;;;;5021847;28;20528;-81
2022/08/23 11:35:10;;;;;;;4.90;2.50;;;27.00;99.90;;;;;;4995541;28;20049;-82
2022/08/23 11:37:59;;;;;;;4.78;1.70;;;27.20;99.90;;;;;;5008532;28;20454;-74
2022/08/23 11:40:55;;;;;;;2.70;1.67;;;27.50;99.90;;;;;;5010191;28;20658;-77
2022/08/23 11:43:35;;;;;;;7.30;2.75;;;27.20;99.90;;;;;;4999319;28;20042;-76
2022/08/23 11:46:26;;;;;;;12.00;1.92;;;27.30;99.90;;;;;;5003840;28;20503;-76
2022/08/23 11:49:00;;;;;;;6.53;2.67;;;27.50;99.90;;;;;;4999629;28;20085;-75
2022/08/23 11:51:44;;;;;;;5.85;2.30;;;27.50;99.90;;;;;;5003662;28;20645;-77
2022/08/23 11:54:22;;;;;;;10.75;2.83;;;27.70;99.90;;;;;;4995739;28;20047;-76
2022/08/23 11:57:18;;;;;;;4.70;2.40;;;27.70;99.90;;;;;;4994957;28;20057;-81
2022/08/23 12:00:12;;;;;;;7.35;2.78;;;27.70;99.90;;;;;;4984305;28;20092;-78
2022/08/23 12:02:45;;;;;;;3.92;1.95;;;27.50;99.90;;;;;;5015989;28;20130;-80
2022/08/23 12:05:16;;;;;;;7.28;2.28;;;27.80;99.90;;;;;;5001442;28;20129;-79
2022/08/23 12:08:01;;;;;;;6.18;2.20;;;27.90;99.90;;;;;;5007338;28;20057;-80
2022/08/23 12:10:41;;;;;;;7.18;2.15;;;27.90;99.90;;;;;;4999539;28;20053;-79
2022/08/23 12:13:19;;;;;;;4.70;2.45;;;27.90;99.90;;;;;;5002473;28;20052;-79
2022/08/23 12:16:08;;;;;;;4.82;1.50;;;27.90;99.90;;;;;;5022632;28;20049;-80
2022/08/23 12:18:41;;;;;;;7.78;2.15;;;28.00;99.90;;;;;;5006338;28;20040;-81
2022/08/23 12:21:15;;;;;;;5.22;2.47;;;27.90;99.90;;;;;;5002932;28;20045;-80
2022/08/23 12:23:51;;;;;;;5.47;2.55;;;28.10;99.90;;;;;;5004674;28;20490;-79
2022/08/23 12:26:38;;;;;;;4.80;2.35;;;28.20;99.90;;;;;;5005669;28;20064;-80
2022/08/23 12:29:20;;;;;;;4.82;2.25;;;28.00;99.90;;;;;;4998228;28;20357;-80
2022/08/23 12:32:04;;;;;;;5.22;1.83;;;28.20;99.90;;;;;;4989277;28;20528;-79
2022/08/23 12:34:36;;;;;;;5.15;2.30;;;28.30;99.90;;;;;;4999651;28;20031;-79
2022/08/23 12:37:13;;;;;;;3.45;1.83;;;28.50;99.90;;;;;;5002429;28;20057;-79
2022/08/23 12:39:52;;;;;;;5.35;2.30;;;28.50;99.90;;;;;;5007132;28;20034;-81
2022/08/23 12:42:25;;;;;;;2.90;1.80;;;28.60;99.90;;;;;;5004637;28;20038;-82
2022/08/23 12:45:17;;;;;;;5.93;3.30;;;28.50;99.90;;;;;;5004750;28;20042;-81
2022/08/23 12:48:05;;;;;;;5.57;1.90;;;28.40;99.90;;;;;;4999973;28;20042;-83
2022/08/23 12:50:37;;;;;;;5.30;2.50;;;28.60;99.90;;;;;;5038583;28;20077;-82
2022/08/23 12:53:27;;;;;;;6.07;2.78;;;28.50;99.90;;;;;;5029732;28;20041;-82
2022/08/23 12:55:57;;;;;;;;;;;28.50;99.90;;;;;;5024723;28;20382;-82
2022/08/23 12:58:30;;;;;;;6.93;2.15;;;28.60;99.90;;;;;;5048662;28;20034;-81
2022/08/23 13:00:59;;;;;;;14.68;3.28;;;28.80;99.90;;;;;;5044121;28;20047;-81
2022/08/23 13:03:39;;;;;;;14.60;4.18;;;28.50;99.90;;;;;;5020699;28;20079;-80
2022/08/23 13:06:14;;;;;;;6.22;2.72;;;28.20;99.90;;;;;;5026864;28;20045;-80
2022/08/23 13:09:01;;;;;;;6.63;2.30;;;28.40;99.90;;;;;;5047295;28;20045;-81
2022/08/23 13:11:31;;;;;;;6.63;2.47;;;28.20;99.90;;;;;;5044032;28;20041;-81